Time;durP1;ratioP1;P1;durP2;ratioP2;P2;SDS_P1;SDS_P2;PMS_P1;PMS_P2;Temp;Humidity;BMP_temperature;BMP_pressure;BME280_temperature;BME280_humidity;BME280_pressure;Samples;Min_cycle;Max_cycle;Signal;HPM_P1;HPM_P2
2022/06/24 00:00:55;;;;;;;18.42;7.28;;;23.80;99.90;;;;;;4955738;28;20205;-78
2022/06/24 00:03:23;;;;;;;17.73;5.90;;;23.70;99.90;;;;;;4954056;28;20635;-78
2022/06/24 00:05:50;;;;;;;15.10;6.10;;;23.60;99.90;;;;;;4958410;28;20704;-78
2022/06/24 00:08:17;;;;;;;13.60;6.07;;;23.60;99.90;;;;;;4959281;28;20225;-77
2022/06/24 00:10:44;;;;;;;10.25;5.43;;;23.50;99.90;;;;;;4962763;28;20253;-77
2022/06/24 00:13:13;;;;;;;17.73;6.93;;;23.50;99.90;;;;;;4960415;28;20704;-77
2022/06/24 00:15:40;;;;;;;11.05;5.00;;;23.40;99.90;;;;;;4961244;28;20713;-78
2022/06/24 00:18:14;;;;;;;12.85;5.65;;;23.40;99.90;;;;;;4961666;28;20324;-77
2022/06/24 00:20:46;;;;;;;13.23;5.03;;;23.40;99.90;;;;;;4961005;28;20197;-77
2022/06/24 00:23:15;;;;;;;13.98;5.38;;;23.40;99.90;;;;;;4960282;28;20224;-77
2022/06/24 00:25:43;;;;;;;10.23;4.85;;;23.40;99.90;;;;;;4973005;28;20221;-80
2022/06/24 00:28:13;;;;;;;12.40;5.18;;;23.40;99.90;;;;;;4970494;28;20225;-78
2022/06/24 00:30:41;;;;;;;7.13;4.13;;;23.30;99.90;;;;;;4959502;28;20202;-77
2022/06/24 00:33:13;;;;;;;5.15;3.70;;;23.30;99.90;;;;;;4955721;28;20723;-78
2022/06/24 00:35:42;;;;;;;5.57;3.70;;;23.20;99.90;;;;;;4960246;28;20371;-77
2022/06/24 00:38:25;;;;;;;10.05;4.40;;;23.20;99.90;;;;;;4952943;28;20645;-77
2022/06/24 00:40:56;;;;;;;12.70;4.28;;;23.20;99.90;;;;;;4957872;28;20594;-78
2022/06/24 00:43:27;;;;;;;15.23;4.88;;;23.30;99.90;;;;;;4952370;28;20238;-77
2022/06/24 00:46:01;;;;;;;9.40;4.13;;;23.30;99.90;;;;;;4957247;28;20303;-77
2022/06/24 00:48:30;;;;;;;8.90;4.05;;;23.40;99.90;;;;;;4956373;28;20220;-77
2022/06/24 00:50:57;;;;;;;7.95;3.30;;;23.40;99.90;;;;;;4956440;28;20225;-78
2022/06/24 00:53:25;;;;;;;6.55;3.05;;;23.40;99.90;;;;;;4952629;28;20228;-77
2022/06/24 00:55:52;;;;;;;8.18;3.55;;;23.30;99.90;;;;;;5024186;23;20229;-77
2022/06/24 00:58:20;;;;;;;9.75;2.97;;;23.30;99.90;;;;;;4976357;28;20245;-76
2022/06/24 01:00:50;;;;;;;4.07;2.70;;;23.20;99.90;;;;;;4987370;28;20197;-77
2022/06/24 01:03:17;;;;;;;5.75;3.35;;;23.20;99.90;;;;;;4986914;28;20253;-76
2022/06/24 01:05:45;;;;;;;5.40;3.13;;;23.10;99.90;;;;;;4982973;28;20232;-76
2022/06/24 01:08:13;;;;;;;5.35;2.88;;;23.10;99.90;;;;;;4977640;28;20901;-77
2022/06/24 01:10:41;;;;;;;7.10;3.10;;;23.00;99.90;;;;;;4987830;28;20715;-76
2022/06/24 01:13:10;;;;;;;3.88;2.88;;;23.00;99.90;;;;;;4987255;28;20217;-77
2022/06/24 01:15:37;;;;;;;2.95;2.40;;;23.00;99.90;;;;;;4975530;28;20304;-77
2022/06/24 01:18:07;;;;;;;4.93;2.72;;;23.00;99.90;;;;;;4976927;28;20231;-77
2022/06/24 01:20:34;;;;;;;9.15;3.42;;;23.00;99.90;;;;;;4978993;28;20205;-77
2022/06/24 01:23:03;;;;;;;4.68;2.83;;;23.00;99.90;;;;;;4980294;28;20639;-77
2022/06/24 01:25:31;;;;;;;4.95;2.78;;;22.90;99.90;;;;;;4975970;28;20233;-76
2022/06/24 01:27:59;;;;;;;6.65;3.35;;;22.90;99.90;;;;;;4978786;28;20251;-77
2022/06/24 01:30:26;;;;;;;8.82;3.28;;;22.90;99.90;;;;;;4984760;28;20201;-77
2022/06/24 01:32:53;;;;;;;9.32;3.65;;;22.90;99.90;;;;;;4984451;28;20259;-77
2022/06/24 01:35:21;;;;;;;7.75;4.28;;;22.80;99.90;;;;;;4975731;28;20210;-77
2022/06/24 01:37:48;;;;;;;5.25;3.35;;;22.70;99.90;;;;;;4980165;28;20627;-76
2022/06/24 01:40:16;;;;;;;8.48;3.70;;;22.60;99.90;;;;;;4978937;28;20251;-77
2022/06/24 01:42:43;;;;;;;9.10;3.30;;;22.60;99.90;;;;;;4981698;28;20255;-76
2022/06/24 01:45:11;;;;;;;5.40;3.67;;;22.50;99.90;;;;;;4980547;28;20220;-77
2022/06/24 01:47:38;;;;;;;4.63;3.20;;;22.40;99.90;;;;;;4979099;28;20221;-77
2022/06/24 01:50:07;;;;;;;3.15;2.50;;;22.40;99.90;;;;;;4980735;28;20217;-77
2022/06/24 01:52:34;;;;;;;4.25;2.60;;;22.50;99.90;;;;;;4982494;28;20220;-77
2022/06/24 01:55:01;;;;;;;4.68;2.75;;;22.50;99.90;;;;;;4978288;28;20240;-78
2022/06/24 01:57:30;;;;;;;3.80;2.58;;;22.60;99.90;;;;;;4977292;28;20228;-77
2022/06/24 01:59:58;;;;;;;3.50;2.72;;;22.60;99.90;;;;;;4975380;28;20211;-77
2022/06/24 02:02:26;;;;;;;4.70;2.65;;;22.50;99.90;;;;;;4977222;28;20304;-77
2022/06/24 02:04:54;;;;;;;5.10;2.85;;;22.50;99.90;;;;;;4980458;28;20225;-77
2022/06/24 02:07:22;;;;;;;5.25;2.88;;;22.50;99.90;;;;;;4974087;28;20735;-77
2022/06/24 02:15:21;;;;;;;5.80;2.40;;;22.40;99.90;;;;;;4980084;28;20223;-76
2022/06/24 02:17:48;;;;;;;6.65;2.90;;;22.30;99.90;;;;;;4979243;28;20221;-77
2022/06/24 02:20:15;;;;;;;9.50;3.65;;;22.30;99.90;;;;;;4986487;28;20670;-76
2022/06/24 02:22:42;;;;;;;9.57;4.47;;;22.30;99.90;;;;;;4993033;28;20711;-77
2022/06/24 02:25:10;;;;;;;5.05;2.97;;;22.20;99.90;;;;;;4985915;28;20221;-77
2022/06/24 02:27:38;;;;;;;7.47;3.63;;;22.20;99.90;;;;;;4977495;28;20291;-77
2022/06/24 02:30:06;;;;;;;7.45;3.13;;;22.30;99.90;;;;;;4982033;28;20267;-77
2022/06/24 02:32:33;;;;;;;5.32;3.33;;;22.20;99.90;;;;;;4986980;28;20228;-77
2022/06/24 02:35:01;;;;;;;4.50;2.75;;;22.20;99.90;;;;;;4984095;28;20233;-77
2022/06/24 02:37:28;;;;;;;7.45;2.70;;;22.20;99.90;;;;;;4986087;28;20235;-77
2022/06/24 02:39:55;;;;;;;3.95;2.70;;;22.10;99.90;;;;;;4987035;28;20204;-75
2022/06/24 02:42:22;;;;;;;5.60;3.03;;;22.10;99.90;;;;;;4984756;28;20663;-77
2022/06/24 02:44:50;;;;;;;5.20;2.83;;;22.10;99.90;;;;;;4983562;28;20248;-77
2022/06/24 02:47:17;;;;;;;4.72;2.50;;;22.10;99.90;;;;;;4984432;28;20267;-76
2022/06/24 02:49:44;;;;;;;6.53;3.20;;;22.00;99.90;;;;;;4979332;28;20406;-77
2022/06/24 02:52:11;;;;;;;7.57;2.75;;;22.00;99.90;;;;;;4980364;28;20192;-77
2022/06/24 02:54:38;;;;;;;3.13;2.45;;;21.90;99.90;;;;;;4982455;28;20642;-78
2022/06/24 02:57:06;;;;;;;9.95;3.20;;;21.80;99.90;;;;;;4979083;28;20206;-77
2022/06/24 02:59:33;;;;;;;6.65;3.38;;;21.70;99.90;;;;;;4983803;28;20228;-77
2022/06/24 03:02:01;;;;;;;5.78;3.00;;;21.60;99.90;;;;;;4979382;28;20556;-76
2022/06/24 03:04:28;;;;;;;4.28;2.83;;;21.60;99.90;;;;;;4985216;28;20220;-77
2022/06/24 03:06:55;;;;;;;5.10;3.10;;;21.60;99.90;;;;;;4979505;28;20255;-76
2022/06/24 03:09:22;;;;;;;5.68;2.83;;;21.60;99.90;;;;;;4982605;28;20224;-77
2022/06/24 03:11:49;;;;;;;6.32;2.70;;;21.60;99.90;;;;;;4978949;28;20197;-78
2022/06/24 03:14:16;;;;;;;6.55;3.75;;;21.60;99.90;;;;;;4979294;28;20735;-77
2022/06/24 03:16:43;;;;;;;10.32;3.95;;;21.50;99.90;;;;;;4985374;28;20202;-78
2022/06/24 03:19:12;;;;;;;7.95;4.20;;;21.40;99.90;;;;;;4980566;28;20216;-78
2022/06/24 03:21:39;;;;;;;7.45;3.88;;;21.40;99.90;;;;;;4982955;28;20193;-77
2022/06/24 03:24:07;;;;;;;5.78;3.22;;;21.30;99.90;;;;;;4981832;28;20227;-78
2022/06/24 03:26:34;;;;;;;5.15;3.30;;;21.30;99.90;;;;;;4983874;28;20237;-77
2022/06/24 03:29:01;;;;;;;5.95;3.33;;;21.20;99.90;;;;;;4980889;28;20225;-77
2022/06/24 03:31:28;;;;;;;5.15;3.22;;;21.20;99.90;;;;;;4980432;28;20234;-77
2022/06/24 03:33:57;;;;;;;3.92;3.25;;;21.20;99.90;;;;;;4981103;28;20220;-78
2022/06/24 03:36:26;;;;;;;5.30;3.60;;;21.20;99.90;;;;;;4981022;28;20226;-77
2022/06/24 03:38:53;;;;;;;7.90;4.10;;;21.20;99.90;;;;;;4977895;28;20784;-76
2022/06/24 03:41:20;;;;;;;6.60;3.88;;;21.20;99.90;;;;;;4976820;28;20245;-77
2022/06/24 03:43:47;;;;;;;6.25;3.90;;;21.00;99.90;;;;;;4975486;28;20228;-76
2022/06/24 03:46:14;;;;;;;5.55;4.20;;;21.00;99.90;;;;;;4979792;28;20229;-78
2022/06/24 03:48:41;;;;;;;6.45;4.60;;;20.90;99.90;;;;;;4978694;28;20221;-77
2022/06/24 03:51:08;;;;;;;8.45;4.35;;;20.80;99.90;;;;;;4977489;28;20206;-78
2022/06/24 03:53:37;;;;;;;6.72;4.18;;;20.70;99.90;;;;;;4979668;28;20216;-77
2022/06/24 03:56:04;;;;;;;9.35;4.72;;;20.70;99.90;;;;;;4981343;28;20241;-77
2022/06/24 03:58:31;;;;;;;8.70;4.47;;;20.70;99.90;;;;;;4981075;28;20248;-77
2022/06/24 04:01:01;;;;;;;7.47;4.57;;;20.70;99.90;;;;;;4982418;28;20208;-76
2022/06/24 04:03:28;;;;;;;5.05;3.88;;;20.80;99.90;;;;;;4982552;28;20218;-78
2022/06/24 04:05:55;;;;;;;7.50;4.45;;;20.90;99.90;;;;;;4981760;28;20762;-77
2022/06/24 04:08:23;;;;;;;6.05;4.00;;;20.90;99.90;;;;;;4981840;28;20233;-76
2022/06/24 04:10:51;;;;;;;7.28;4.00;;;21.00;99.90;;;;;;4984169;28;20197;-77
2022/06/24 04:13:18;;;;;;;5.95;4.05;;;21.10;99.90;;;;;;4979127;28;20557;-77
2022/06/24 04:15:46;;;;;;;7.15;4.03;;;21.20;99.90;;;;;;4981920;28;20216;-77
2022/06/24 04:18:13;;;;;;;6.93;4.50;;;21.20;99.90;;;;;;4980403;28;20240;-78
2022/06/24 04:20:40;;;;;;;4.93;3.45;;;21.30;99.90;;;;;;4983765;28;20208;-78
2022/06/24 04:23:07;;;;;;;6.60;3.90;;;21.30;99.90;;;;;;4987283;28;20216;-78
2022/06/24 04:25:35;;;;;;;5.80;4.03;;;21.40;99.90;;;;;;4979074;28;20221;-77
2022/06/24 04:28:03;;;;;;;6.13;4.65;;;21.50;99.90;;;;;;4985788;28;20247;-77
2022/06/24 04:30:30;;;;;;;7.68;4.38;;;21.50;99.90;;;;;;4987847;28;20200;-77
2022/06/24 04:32:57;;;;;;;9.50;5.00;;;21.50;99.90;;;;;;4981902;28;20235;-77
2022/06/24 04:35:24;;;;;;;6.57;4.70;;;21.40;99.90;;;;;;4980854;28;20588;-78
2022/06/24 04:37:52;;;;;;;8.02;4.32;;;21.40;99.90;;;;;;4979416;28;20215;-78
2022/06/24 04:40:19;;;;;;;6.30;4.63;;;21.40;99.90;;;;;;4975479;28;20194;-78
2022/06/24 04:42:47;;;;;;;6.32;4.68;;;21.40;99.90;;;;;;4984941;28;20233;-78
2022/06/24 04:45:16;;;;;;;6.97;5.00;;;21.50;99.90;;;;;;4976445;28;20241;-78
2022/06/24 04:47:43;;;;;;;7.13;4.95;;;21.60;99.90;;;;;;4981023;28;20232;-78
2022/06/24 04:50:11;;;;;;;7.72;5.20;;;21.70;99.90;;;;;;4980697;28;20204;-78
2022/06/24 04:52:39;;;;;;;7.65;4.72;;;21.60;99.90;;;;;;4978860;28;20221;-78
2022/06/24 04:55:08;;;;;;;9.93;4.55;;;21.50;99.90;;;;;;4978209;28;20607;-78
2022/06/24 04:57:35;;;;;;;8.70;5.53;;;21.50;99.90;;;;;;4984454;28;20703;-78
2022/06/24 05:00:03;;;;;;;8.48;5.43;;;21.50;99.90;;;;;;4985815;28;20200;-78
2022/06/24 05:02:32;;;;;;;8.65;5.30;;;21.60;99.90;;;;;;4985038;28;20219;-77
2022/06/24 05:04:59;;;;;;;8.40;4.63;;;21.80;99.90;;;;;;4981160;28;20217;-77
2022/06/24 05:07:26;;;;;;;7.35;4.68;;;22.10;99.90;;;;;;4985778;28;20277;-78
2022/06/24 05:09:53;;;;;;;6.07;4.97;;;22.30;99.90;;;;;;4983043;28;20232;-78
2022/06/24 05:12:20;;;;;;;6.68;4.90;;;22.40;99.90;;;;;;4982542;28;20460;-76
2022/06/24 05:14:47;;;;;;;8.70;5.25;;;22.50;99.90;;;;;;4985249;28;20217;-78
2022/06/24 05:17:14;;;;;;;10.00;5.75;;;22.50;99.90;;;;;;4984494;28;20189;-77
2022/06/24 05:19:43;;;;;;;6.82;5.60;;;22.50;99.90;;;;;;4979529;28;20221;-78
2022/06/24 05:22:10;;;;;;;5.95;5.35;;;22.80;99.90;;;;;;4982385;28;20200;-77
2022/06/24 05:24:37;;;;;;;12.98;6.65;;;23.10;99.90;;;;;;4986235;28;20219;-78
2022/06/24 05:27:05;;;;;;;9.50;6.40;;;23.10;99.90;;;;;;4987789;28;20228;-78
2022/06/24 05:29:32;;;;;;;12.32;6.57;;;23.00;99.90;;;;;;4987451;28;20615;-78
2022/06/24 05:31:59;;;;;;;12.38;6.72;;;22.80;99.90;;;;;;4986822;28;20200;-77
2022/06/24 05:34:26;;;;;;;11.10;6.00;;;22.80;99.90;;;;;;4978848;28;20699;-77
2022/06/24 05:36:55;;;;;;;9.00;5.78;;;22.80;99.90;;;;;;4980019;28;20193;-77
2022/06/24 05:39:22;;;;;;;8.82;6.15;;;22.90;99.90;;;;;;4984609;28;20666;-78
2022/06/24 05:41:49;;;;;;;11.98;5.95;;;23.00;99.90;;;;;;4986644;28;20213;-77
2022/06/24 05:44:16;;;;;;;11.50;6.28;;;23.10;99.90;;;;;;4980936;28;20236;-77
2022/06/24 05:46:43;;;;;;;10.65;5.78;;;23.30;99.90;;;;;;4982351;28;20216;-76
2022/06/24 05:49:10;;;;;;;17.10;7.10;;;23.40;99.90;;;;;;4977011;28;20213;-77
2022/06/24 05:51:37;;;;;;;8.80;5.80;;;23.50;99.90;;;;;;4976846;28;20202;-76
2022/06/24 05:56:50;;;;;;;15.35;6.50;;;23.70;99.90;;;;;;4981355;28;20237;-78
2022/06/24 05:59:17;;;;;;;9.70;5.78;;;23.70;99.90;;;;;;4981294;28;20224;-77
2022/06/24 06:01:44;;;;;;;10.70;6.00;;;23.80;99.90;;;;;;4989587;28;20208;-76
2022/06/24 06:04:12;;;;;;;12.35;6.10;;;23.80;99.90;;;;;;4985740;28;20217;-77
2022/06/24 06:06:39;;;;;;;10.60;6.45;;;23.90;99.90;;;;;;4983494;28;20224;-75
2022/06/24 06:09:07;;;;;;;11.60;6.70;;;23.90;99.90;;;;;;4982357;28;20229;-77
2022/06/24 06:11:34;;;;;;;12.90;6.47;;;24.00;99.90;;;;;;4988858;28;20197;-77
2022/06/24 06:14:02;;;;;;;13.93;7.25;;;24.00;99.90;;;;;;4989330;28;20224;-77
2022/06/24 06:16:29;;;;;;;11.55;6.75;;;24.00;99.90;;;;;;4982366;28;20595;-77
2022/06/24 06:18:56;;;;;;;17.75;7.07;;;23.90;99.90;;;;;;4992469;28;20600;-78
2022/06/24 06:21:23;;;;;;;12.95;6.88;;;24.00;99.90;;;;;;4985504;28;20201;-77
2022/06/24 06:23:51;;;;;;;16.65;6.82;;;23.90;99.90;;;;;;4978242;28;20578;-77
2022/06/24 06:26:19;;;;;;;15.77;6.78;;;24.00;99.90;;;;;;4979585;28;20225;-77
2022/06/24 06:28:46;;;;;;;14.20;6.63;;;24.00;99.90;;;;;;4982702;28;20233;-78
2022/06/24 06:31:13;;;;;;;12.82;7.22;;;24.20;99.90;;;;;;4978614;28;20208;-78
2022/06/24 06:33:40;;;;;;;14.07;7.15;;;24.20;99.90;;;;;;4988115;28;20217;-78
2022/06/24 06:36:09;;;;;;;12.50;6.43;;;24.30;99.90;;;;;;4983736;28;20228;-78
2022/06/24 06:38:37;;;;;;;10.57;6.15;;;24.40;99.90;;;;;;4980245;28;20228;-78
2022/06/24 06:41:04;;;;;;;10.00;6.18;;;24.40;99.90;;;;;;4983556;28;20201;-77
2022/06/24 06:43:33;;;;;;;12.27;7.60;;;24.50;99.90;;;;;;4980664;28;20278;-77
2022/06/24 06:46:00;;;;;;;13.30;6.65;;;24.50;99.90;;;;;;4975928;28;20234;-76
2022/06/24 06:48:28;;;;;;;15.70;7.50;;;24.60;99.90;;;;;;4986772;28;20232;-79
2022/06/24 06:50:56;;;;;;;10.25;5.95;;;24.80;99.90;;;;;;4978626;28;20208;-78
2022/06/24 06:53:23;;;;;;;10.15;5.95;;;24.80;99.90;;;;;;4978452;28;20225;-77
2022/06/24 06:55:50;;;;;;;13.77;6.70;;;25.10;99.90;;;;;;5003754;23;20217;-76
2022/06/24 06:58:18;;;;;;;11.20;6.72;;;25.10;99.90;;;;;;4974681;28;20770;-74
2022/06/24 07:00:47;;;;;;;13.15;6.70;;;25.10;99.90;;;;;;4976997;28;20261;-73
2022/06/24 07:03:14;;;;;;;13.35;6.07;;;25.20;99.90;;;;;;4976107;28;20225;-74
2022/06/24 07:05:42;;;;;;;16.85;6.70;;;25.20;99.90;;;;;;4972479;28;20289;-75
2022/06/24 07:08:10;;;;;;;15.65;7.57;;;25.20;99.90;;;;;;4970833;28;20307;-75
2022/06/24 07:10:38;;;;;;;16.42;7.15;;;25.10;99.90;;;;;;4975418;28;20264;-74
2022/06/24 07:13:05;;;;;;;12.35;6.85;;;25.10;99.90;;;;;;4973564;28;20202;-76
2022/06/24 07:15:32;;;;;;;18.08;7.20;;;25.10;99.90;;;;;;4968757;28;20221;-73
2022/06/24 07:18:01;;;;;;;13.13;6.75;;;25.00;99.90;;;;;;4975741;28;20731;-74
2022/06/24 07:20:29;;;;;;;13.50;6.93;;;24.80;99.90;;;;;;4975958;28;20206;-74
2022/06/24 07:22:56;;;;;;;13.13;6.72;;;24.90;99.90;;;;;;4975360;28;20208;-74
2022/06/24 07:25:23;;;;;;;11.48;6.53;;;25.10;99.90;;;;;;4981915;28;20548;-74
2022/06/24 07:27:50;;;;;;;13.00;6.20;;;25.20;99.90;;;;;;4976173;28;20228;-72
2022/06/24 07:30:17;;;;;;;11.48;6.75;;;25.40;99.90;;;;;;4974847;28;20677;-74
2022/06/24 07:32:46;;;;;;;13.85;6.35;;;25.60;99.90;;;;;;4976387;28;20195;-73
2022/06/24 07:35:15;;;;;;;15.95;7.28;;;25.70;99.90;;;;;;4974421;28;20252;-74
2022/06/24 07:37:42;;;;;;;11.23;6.07;;;26.00;99.90;;;;;;4975519;28;20197;-75
2022/06/24 07:40:10;;;;;;;15.23;6.22;;;26.00;99.90;;;;;;4974659;28;20229;-72
2022/06/24 07:42:37;;;;;;;11.52;5.57;;;26.00;99.90;;;;;;4974116;28;20553;-75
2022/06/24 07:45:06;;;;;;;16.50;6.53;;;26.10;99.90;;;;;;4974592;28;20213;-73
2022/06/24 07:47:34;;;;;;;12.82;5.68;;;26.10;99.90;;;;;;4972585;28;20696;-73
2022/06/24 07:50:06;;;;;;;11.77;5.97;;;26.20;99.90;;;;;;4974333;28;20918;-74
2022/06/24 07:52:35;;;;;;;12.13;6.00;;;26.20;99.90;;;;;;4975130;28;20277;-75
2022/06/24 07:57:46;;;;;;;12.18;5.80;;;26.50;99.90;;;;;;4975241;28;20573;-75
2022/06/24 08:00:14;;;;;;;10.20;5.60;;;26.60;99.90;;;;;;4967710;28;20225;-74
2022/06/24 08:02:41;;;;;;;12.23;5.63;;;26.60;99.90;;;;;;4975364;28;20297;-74
2022/06/24 08:05:09;;;;;;;15.32;5.65;;;26.70;99.90;;;;;;4974810;28;20229;-73
2022/06/24 08:07:38;;;;;;;12.20;5.20;;;26.80;99.90;;;;;;4974236;28;20301;-74
2022/06/24 08:10:06;;;;;;;11.32;5.15;;;27.00;99.90;;;;;;4970615;28;20703;-74
2022/06/24 08:12:33;;;;;;;11.70;5.25;;;27.10;99.90;;;;;;4955915;28;20206;-74
2022/06/24 08:15:00;;;;;;;13.77;5.50;;;27.10;99.90;;;;;;4972285;28;20236;-75
2022/06/24 08:17:27;;;;;;;9.98;4.47;;;26.90;99.90;;;;;;4974741;28;20210;-74
2022/06/24 08:19:54;;;;;;;13.23;4.93;;;27.10;99.90;;;;;;4974676;28;20222;-77
2022/06/24 08:22:22;;;;;;;8.52;4.15;;;27.40;99.90;;;;;;4975069;28;20206;-74
2022/06/24 08:24:50;;;;;;;13.38;3.95;;;27.90;99.90;;;;;;4974306;28;20257;-74
2022/06/24 08:27:17;;;;;;;12.63;3.95;;;28.10;99.90;;;;;;4974275;28;20229;-75
2022/06/24 08:29:44;;;;;;;12.40;4.00;;;27.90;99.90;;;;;;4973556;28;20217;-76
2022/06/24 08:32:11;;;;;;;11.32;4.00;;;27.70;99.90;;;;;;4970591;28;20707;-76
2022/06/24 08:34:38;;;;;;;14.43;4.30;;;27.60;99.90;;;;;;4974344;28;20728;-75
2022/06/24 08:37:05;;;;;;;14.02;3.78;;;27.80;99.90;;;;;;4967982;28;20233;-75
2022/06/24 08:39:32;;;;;;;17.65;3.35;;;27.70;99.90;;;;;;4964562;28;20230;-75
2022/06/24 08:42:03;;;;;;;11.35;3.13;;;27.70;99.90;;;;;;4975284;28;20619;-74
2022/06/24 08:44:30;;;;;;;10.75;3.55;;;27.80;99.90;;;;;;4973774;28;20252;-76
2022/06/24 08:46:57;;;;;;;14.43;4.13;;;27.90;99.90;;;;;;4973999;28;20763;-76
2022/06/24 08:49:26;;;;;;;10.88;4.00;;;27.90;99.90;;;;;;4971211;28;20225;-76
2022/06/24 08:51:56;;;;;;;15.60;3.63;;;28.10;99.90;;;;;;4973847;28;20209;-74
2022/06/24 08:54:30;;;;;;;10.23;3.72;;;28.20;99.90;;;;;;4974233;28;20283;-75
2022/06/24 08:56:58;;;;;;;10.77;3.53;;;28.30;99.90;;;;;;4969060;28;20361;-75
2022/06/24 08:59:29;;;;;;;10.65;3.97;;;28.10;99.90;;;;;;4972619;28;20245;-75
2022/06/24 09:01:56;;;;;;;15.70;4.53;;;28.30;99.90;;;;;;4970575;28;20283;-75
2022/06/24 09:04:24;;;;;;;11.18;4.25;;;28.50;99.90;;;;;;4972598;28;20596;-74
2022/06/24 09:06:51;;;;;;;11.77;3.30;;;28.70;99.90;;;;;;4972868;28;20252;-74
2022/06/24 09:09:24;;;;;;;11.00;3.63;;;28.80;99.90;;;;;;4971525;28;20735;-75
2022/06/24 09:11:55;;;;;;;9.18;3.03;;;29.00;99.90;;;;;;4973367;28;20182;-75
2022/06/24 09:14:22;;;;;;;11.55;3.58;;;29.10;99.90;;;;;;4973212;28;20217;-76
2022/06/24 09:16:51;;;;;;;7.25;2.70;;;29.10;99.90;;;;;;4973623;28;20253;-74
2022/06/24 09:19:18;;;;;;;7.78;3.55;;;29.10;99.90;;;;;;4974531;28;20233;-75
2022/06/24 09:21:46;;;;;;;10.52;4.25;;;29.10;99.90;;;;;;4975058;28;20288;-75
2022/06/24 09:24:15;;;;;;;15.23;3.15;;;29.00;99.90;;;;;;4974118;28;20221;-77
2022/06/24 09:26:44;;;;;;;11.02;3.35;;;29.00;99.90;;;;;;4974869;28;20312;-77
2022/06/24 09:29:12;;;;;;;14.13;4.07;;;29.10;99.90;;;;;;4975018;28;20747;-77
2022/06/24 09:31:40;;;;;;;12.43;4.18;;;29.10;99.90;;;;;;4977525;28;20679;-75
2022/06/24 09:34:13;;;;;;;12.88;3.88;;;29.00;99.90;;;;;;4977482;28;20225;-76
2022/06/24 09:36:42;;;;;;;11.23;3.28;;;28.80;99.90;;;;;;4978525;28;20229;-76
2022/06/24 09:39:11;;;;;;;10.07;3.83;;;28.90;99.90;;;;;;4974153;28;20746;-76
2022/06/24 09:41:48;;;;;;;15.32;4.20;;;28.90;99.90;;;;;;4976299;28;20198;-77
2022/06/24 09:44:17;;;;;;;14.07;4.55;;;28.80;99.90;;;;;;4974075;28;20711;-77
2022/06/24 09:46:45;;;;;;;12.05;3.65;;;28.80;99.90;;;;;;4977387;28;20216;-76
2022/06/24 09:49:15;;;;;;;13.40;3.97;;;28.60;99.90;;;;;;4970147;28;20288;-77
2022/06/24 09:51:44;;;;;;;11.63;3.25;;;28.60;99.90;;;;;;4978650;28;20208;-77
2022/06/24 09:54:11;;;;;;;16.45;4.00;;;28.60;99.90;;;;;;4977229;28;20312;-75
2022/06/24 09:56:39;;;;;;;10.68;4.07;;;28.60;99.90;;;;;;4965429;28;20225;-76
2022/06/24 10:01:54;;;;;;;10.85;4.18;;;28.40;99.90;;;;;;4974114;28;20601;-76
2022/06/24 10:04:24;;;;;;;13.40;3.78;;;28.40;99.90;;;;;;4977294;28;20224;-76
2022/06/24 10:06:52;;;;;;;10.57;3.30;;;28.60;99.90;;;;;;4975817;28;20229;-75
2022/06/24 10:09:25;;;;;;;13.10;3.95;;;28.90;99.90;;;;;;4963550;28;20230;-76
2022/06/24 10:11:54;;;;;;;10.95;4.15;;;29.10;99.90;;;;;;4974166;28;20205;-76
2022/06/24 10:14:21;;;;;;;13.20;4.47;;;29.10;99.90;;;;;;4977628;28;20248;-75
2022/06/24 10:16:50;;;;;;;14.43;4.18;;;29.00;99.90;;;;;;4976724;28;20583;-76
2022/06/24 10:19:19;;;;;;;14.40;3.55;;;29.00;99.90;;;;;;4965959;28;20247;-76
2022/06/24 10:21:49;;;;;;;9.75;3.58;;;28.90;99.90;;;;;;4979094;28;20194;-76
2022/06/24 10:24:17;;;;;;;11.60;3.65;;;28.90;99.90;;;;;;4980023;28;20241;-76
2022/06/24 10:26:47;;;;;;;10.43;3.80;;;28.90;99.90;;;;;;4977686;28;20222;-76
2022/06/24 10:29:22;;;;;;;11.57;4.13;;;29.10;99.90;;;;;;4957513;28;20261;-76
2022/06/24 10:32:01;;;;;;;13.13;4.22;;;29.20;99.90;;;;;;4975886;28;20193;-76
2022/06/24 10:34:30;;;;;;;12.18;3.63;;;29.20;99.90;;;;;;4976422;28;20217;-76
2022/06/24 10:37:02;;;;;;;11.18;3.55;;;29.10;99.90;;;;;;4977247;28;20274;-77
2022/06/24 10:39:31;;;;;;;10.20;3.75;;;29.00;99.90;;;;;;4976710;28;20222;-76
2022/06/24 10:42:03;;;;;;;9.05;4.18;;;28.90;99.90;;;;;;4977705;28;20768;-76
2022/06/24 10:44:31;;;;;;;15.00;3.70;;;28.90;99.90;;;;;;4977163;28;20225;-77
2022/06/24 10:47:38;;;;;;;10.70;3.55;;;28.90;99.90;;;;;;4983404;28;20221;-77
2022/06/24 10:50:21;;;;;;;7.30;3.00;;;29.10;99.90;;;;;;4913154;29;20236;-77
2022/06/24 10:53:19;;;;;;;12.00;3.60;;;29.10;99.90;;;;;;4912005;29;20670;-76
2022/06/24 10:55:49;;;;;;;12.45;3.83;;;29.00;99.90;;;;;;4967436;28;20225;-79
2022/06/24 11:05:05;;;;;;;15.13;3.25;;;29.40;99.90;;;;;;4974002;28;20782;-77
2022/06/24 11:07:45;;;;;;;8.10;3.33;;;29.70;99.90;;;;;;4971496;28;20216;-80
2022/06/24 11:10:17;;;;;;;9.88;3.05;;;29.90;99.90;;;;;;4971931;28;20227;-78
2022/06/24 11:15:53;;;;;;;12.90;3.22;;;30.20;99.90;;;;;;4965184;28;20247;-79
2022/06/24 11:18:24;;;;;;;10.82;3.30;;;30.10;99.90;;;;;;4964042;28;20233;-75
2022/06/24 11:20:54;;;;;;;9.10;3.28;;;29.90;99.90;;;;;;4967812;28;20728;-77
2022/06/24 11:23:22;;;;;;;19.55;4.45;;;29.90;99.90;;;;;;4962536;28;20213;-76
2022/06/24 11:25:51;;;;;;;11.35;3.20;;;29.70;99.90;;;;;;4968706;28;20229;-77
2022/06/24 11:28:22;;;;;;;8.68;2.85;;;29.70;99.90;;;;;;4967819;28;20205;-75
2022/06/24 11:30:50;;;;;;;12.38;3.42;;;29.70;99.90;;;;;;4964799;28;21022;-76
2022/06/24 11:33:17;;;;;;;12.10;3.50;;;29.70;99.90;;;;;;4968711;28;20193;-76
2022/06/24 11:35:46;;;;;;;11.85;3.17;;;29.70;99.90;;;;;;4964995;28;20232;-77
2022/06/24 11:38:13;;;;;;;13.45;3.72;;;29.80;99.90;;;;;;4964743;28;20220;-76
2022/06/24 11:40:41;;;;;;;13.20;3.90;;;29.70;99.90;;;;;;4966059;28;20245;-77
2022/06/24 11:43:11;;;;;;;11.70;3.78;;;29.70;99.90;;;;;;4968211;28;20296;-75
2022/06/24 11:45:41;;;;;;;9.77;3.40;;;29.60;99.90;;;;;;4962977;28;20312;-76
2022/06/24 11:48:10;;;;;;;16.45;3.72;;;29.50;99.90;;;;;;4962022;28;20212;-77
2022/06/24 11:50:38;;;;;;;10.05;3.20;;;29.50;99.90;;;;;;4958599;28;20229;-78
2022/06/24 11:53:07;;;;;;;7.80;3.45;;;29.40;99.90;;;;;;4964013;28;20225;-77
2022/06/24 11:55:35;;;;;;;9.43;3.47;;;29.60;99.90;;;;;;4965571;28;20232;-77
2022/06/24 11:58:06;;;;;;;10.73;3.50;;;29.70;99.90;;;;;;4967263;28;20688;-77
2022/06/24 12:00:35;;;;;;;11.90;3.40;;;29.70;99.90;;;;;;4965154;28;20332;-77
2022/06/24 12:03:06;;;;;;;9.98;3.35;;;29.60;99.90;;;;;;4960741;28;20218;-76
2022/06/24 12:05:35;;;;;;;9.85;3.08;;;29.60;99.90;;;;;;4960932;28;20229;-77
2022/06/24 12:08:02;;;;;;;12.35;3.88;;;29.80;99.90;;;;;;4965041;28;20265;-77
2022/06/24 12:10:30;;;;;;;9.00;3.00;;;29.70;99.90;;;;;;4964127;28;20300;-75
2022/06/24 12:12:59;;;;;;;11.55;3.15;;;29.70;99.90;;;;;;4971297;28;20297;-76
2022/06/24 12:15:28;;;;;;;10.30;3.00;;;29.70;99.90;;;;;;4963377;28;20736;-76
2022/06/24 12:17:56;;;;;;;14.07;3.05;;;29.50;99.90;;;;;;4971893;28;20634;-77
2022/06/24 12:20:27;;;;;;;9.27;3.50;;;29.60;99.90;;;;;;4969048;28;20221;-77
2022/06/24 12:23:16;;;;;;;9.02;3.35;;;29.40;99.90;;;;;;4966229;28;20198;-76
2022/06/24 12:25:45;;;;;;;8.82;2.92;;;29.30;99.90;;;;;;4967060;28;20712;-76
2022/06/24 12:28:19;;;;;;;11.35;3.47;;;29.40;99.90;;;;;;4967948;28;20264;-76
2022/06/24 12:30:57;;;;;;;10.38;3.30;;;29.60;99.90;;;;;;4969226;28;20877;-77
2022/06/24 12:33:25;;;;;;;7.60;2.45;;;29.80;99.90;;;;;;4969380;28;20198;-77
2022/06/24 12:36:06;;;;;;;8.05;2.88;;;29.90;99.90;;;;;;4970918;28;20755;-78
2022/06/24 12:38:33;;;;;;;14.13;3.20;;;30.00;99.90;;;;;;4969787;28;20208;-77
2022/06/24 12:41:14;;;;;;;12.57;3.25;;;30.00;99.90;;;;;;4968173;28;20708;-77
2022/06/24 12:43:56;;;;;;;10.10;3.30;;;29.80;99.90;;;;;;4963549;28;20198;-77
2022/06/24 12:46:24;;;;;;;11.40;2.83;;;29.80;99.90;;;;;;4964160;28;20238;-79
2022/06/24 12:51:43;;;;;;;9.40;2.70;;;29.60;99.90;;;;;;4964452;28;20256;-77
2022/06/24 12:54:12;;;;;;;10.82;3.45;;;29.40;99.90;;;;;;4970307;28;20186;-77
2022/06/24 12:56:39;;;;;;;8.98;2.97;;;29.30;99.90;;;;;;4978788;23;20717;-77
2022/06/24 12:59:06;;;;;;;7.57;2.63;;;29.40;99.90;;;;;;4935922;28;20294;-80
2022/06/24 13:01:41;;;;;;;14.02;3.30;;;29.50;99.90;;;;;;4935512;28;20238;-79
2022/06/24 13:04:08;;;;;;;6.63;2.50;;;29.40;99.90;;;;;;4933468;28;22020;-76
2022/06/24 13:06:36;;;;;;;8.73;3.00;;;29.50;99.90;;;;;;4937470;28;20254;-77
2022/06/24 13:09:06;;;;;;;8.38;2.40;;;29.40;99.90;;;;;;4936591;28;20221;-77
2022/06/24 13:11:34;;;;;;;9.15;2.60;;;29.30;99.90;;;;;;4932532;28;20222;-76
2022/06/24 13:14:02;;;;;;;11.02;2.80;;;29.20;99.90;;;;;;4941506;29;20210;-77